Archival Weather

NSFA McMurdo Sound

NSFA McMurdo Sound, Antarctica (NZCM)

Report from: Thursday, September 21, 2023 10:36 AM UTC
Current time: Saturday, February 24, 2024 3:42 PM UTC

Current weather – Weather history – Daily summaries
Weather forecast

Temperature-6.5°C (20.3°F)
Wind chill-14.6°C (5.7°F)
Dew point-12.1°C (10.2°F)
Winds 15 kts (7.7 m/s, 17.3 mph) South-Southeast (150°)
Wind gusts 29 kts (14.9 m/s, 33.4 mph)
Peak wind 30 kts (15.4 m/s, 34.5 mph) South-Southwest (200°) at 10:21
Visibility6.2 mi. (10 km)
Clouds Ceiling: Overcast 7,000 ft. (2,134 m)
Altimeter28.61 in.Hg (969 mB)
Relative humidity64 %
Density altitude-4,514 ft. (-1,376 m)
Sea-level pressure106.9 kPa (1069 mB, 31.58 in.Hg)
Remarks Fully automated report
Special weather observation
Automated weather observing station with precipitation discriminator
Flight conditions Visual Meteorological Conditions
Raw dataSPECI NZCM 211036Z AUTO 15015G29KT 9999 OVC070 M06/M12 A2861 RMK AO2 PK WND 20030/1021 WSHFT 1032 SLP694 T10651121
An error has occurred. This application may no longer respond until reloaded. Reload 🗙